sensor_id;sensor_type;location;lat;lon;timestamp;temperature;humidity
15231;DHT22;32569;51.762;8.564;2023-04-03T00:00:40;2.90;99.90
15231;DHT22;32569;51.762;8.564;2023-04-03T00:03:13;2.90;99.90
15231;DHT22;32569;51.762;8.564;2023-04-03T00:05:44;2.80;99.90
15231;DHT22;32569;51.762;8.564;2023-04-03T00:08:16;2.80;99.90
15231;DHT22;32569;51.762;8.564;2023-04-03T00:10:43;2.80;99.90
15231;DHT22;32569;51.762;8.564;2023-04-03T00:13:13;2.70;99.90
15231;DHT22;32569;51.762;8.564;2023-04-03T00:15:46;2.70;99.90
15231;DHT22;32569;51.762;8.564;2023-04-03T00:18:12;2.60;99.90
15231;DHT22;32569;51.762;8.564;2023-04-03T00:20:41;2.60;99.90
15231;DHT22;32569;51.762;8.564;2023-04-03T00:23:09;2.60;99.90
15231;DHT22;32569;51.762;8.564;2023-04-03T00:25:36;2.50;99.90
15231;DHT22;32569;51.762;8.564;2023-04-03T00:28:07;2.50;99.90
15231;DHT22;32569;51.762;8.564;2023-04-03T00:30:33;2.50;99.90
15231;DHT22;32569;51.762;8.564;2023-04-03T00:33:00;2.50;99.90
15231;DHT22;32569;51.762;8.564;2023-04-03T00:35:28;2.40;99.90
15231;DHT22;32569;51.762;8.564;2023-04-03T00:37:55;2.40;99.90
15231;DHT22;32569;51.762;8.564;2023-04-03T00:40:26;2.40;99.90
15231;DHT22;32569;51.762;8.564;2023-04-03T00:42:56;2.40;99.90
15231;DHT22;32569;51.762;8.564;2023-04-03T00:45:28;2.30;99.90
15231;DHT22;32569;51.762;8.564;2023-04-03T00:47:56;2.30;99.90
15231;DHT22;32569;51.762;8.564;2023-04-03T00:50:28;2.20;99.90
15231;DHT22;32569;51.762;8.564;2023-04-03T00:52:56;2.30;99.90
15231;DHT22;32569;51.762;8.564;2023-04-03T00:55:24;2.20;99.90
15231;DHT22;32569;51.762;8.564;2023-04-03T00:57:55;2.20;99.90
15231;DHT22;32569;51.762;8.564;2023-04-03T01:00:23;2.20;99.90
15231;DHT22;32569;51.762;8.564;2023-04-03T01:02:51;2.20;99.90
15231;DHT22;32569;51.762;8.564;2023-04-03T01:05:19;2.20;99.90
15231;DHT22;32569;51.762;8.564;2023-04-03T01:07:51;2.20;99.90
15231;DHT22;32569;51.762;8.564;2023-04-03T01:10:21;2.10;99.90
15231;DHT22;32569;51.762;8.564;2023-04-03T01:12:50;2.10;99.90
15231;DHT22;32569;51.762;8.564;2023-04-03T01:15:19;2.10;99.90
15231;DHT22;32569;51.762;8.564;2023-04-03T01:17:47;2.00;99.90
15231;DHT22;32569;51.762;8.564;2023-04-03T01:23:50;2.00;99.90
15231;DHT22;32569;51.762;8.564;2023-04-03T01:26:19;2.00;99.90
15231;DHT22;32569;51.762;8.564;2023-04-03T01:28:47;1.90;99.90
15231;DHT22;32569;51.762;8.564;2023-04-03T01:31:20;1.90;99.90
15231;DHT22;32569;51.762;8.564;2023-04-03T01:33:50;1.90;99.90
15231;DHT22;32569;51.762;8.564;2023-04-03T01:36:20;1.90;99.90
15231;DHT22;32569;51.762;8.564;2023-04-03T01:38:47;1.80;99.90
15231;DHT22;32569;51.762;8.564;2023-04-03T01:41:14;1.80;99.90
15231;DHT22;32569;51.762;8.564;2023-04-03T01:43:47;1.80;99.90
15231;DHT22;32569;51.762;8.564;2023-04-03T01:46:14;1.70;99.90
15231;DHT22;32569;51.762;8.564;2023-04-03T01:48:41;1.70;99.90
15231;DHT22;32569;51.762;8.564;2023-04-03T01:51:09;1.60;99.90
15231;DHT22;32569;51.762;8.564;2023-04-03T01:53:36;1.60;99.90
15231;DHT22;32569;51.762;8.564;2023-04-03T01:56:03;1.70;99.90
15231;DHT22;32569;51.762;8.564;2023-04-03T01:58:30;1.60;99.90
15231;DHT22;32569;51.762;8.564;2023-04-03T02:00:56;1.60;99.90
15231;DHT22;32569;51.762;8.564;2023-04-03T02:03:23;1.50;99.90
15231;DHT22;32569;51.762;8.564;2023-04-03T02:05:50;1.40;99.90
15231;DHT22;32569;51.762;8.564;2023-04-03T02:08:18;1.40;99.90
15231;DHT22;32569;51.762;8.564;2023-04-03T02:10:46;1.40;99.90
15231;DHT22;32569;51.762;8.564;2023-04-03T02:13:17;1.30;99.90
15231;DHT22;32569;51.762;8.564;2023-04-03T02:15:47;1.30;99.90
15231;DHT22;32569;51.762;8.564;2023-04-03T02:18:14;1.30;99.90
15231;DHT22;32569;51.762;8.564;2023-04-03T02:20:41;1.20;99.90
15231;DHT22;32569;51.762;8.564;2023-04-03T02:23:07;1.30;99.90
15231;DHT22;32569;51.762;8.564;2023-04-03T02:25:35;1.20;99.90
15231;DHT22;32569;51.762;8.564;2023-04-03T02:28:05;1.20;99.90
15231;DHT22;32569;51.762;8.564;2023-04-03T02:30:32;1.10;99.90
15231;DHT22;32569;51.762;8.564;2023-04-03T02:32:59;1.10;99.90
15231;DHT22;32569;51.762;8.564;2023-04-03T02:35:26;1.10;99.90
15231;DHT22;32569;51.762;8.564;2023-04-03T02:37:52;1.10;99.90
15231;DHT22;32569;51.762;8.564;2023-04-03T02:40:19;1.10;99.90
15231;DHT22;32569;51.762;8.564;2023-04-03T02:42:47;1.00;99.90
15231;DHT22;32569;51.762;8.564;2023-04-03T02:45:14;1.00;99.90
15231;DHT22;32569;51.762;8.564;2023-04-03T02:47:40;1.10;99.90
15231;DHT22;32569;51.762;8.564;2023-04-03T02:50:07;1.00;99.90
15231;DHT22;32569;51.762;8.564;2023-04-03T02:52:37;1.00;99.90
15231;DHT22;32569;51.762;8.564;2023-04-03T02:55:05;0.90;99.90
15231;DHT22;32569;51.762;8.564;2023-04-03T02:57:31;0.90;99.90
15231;DHT22;32569;51.762;8.564;2023-04-03T02:59:59;0.90;99.90
15231;DHT22;32569;51.762;8.564;2023-04-03T03:02:26;0.90;99.90
15231;DHT22;32569;51.762;8.564;2023-04-03T03:04:55;0.80;99.90
15231;DHT22;32569;51.762;8.564;2023-04-03T03:07:21;0.80;99.90
15231;DHT22;32569;51.762;8.564;2023-04-03T03:09:48;0.80;99.90
15231;DHT22;32569;51.762;8.564;2023-04-03T03:12:15;0.80;99.90
15231;DHT22;32569;51.762;8.564;2023-04-03T03:14:46;0.70;99.90
15231;DHT22;32569;51.762;8.564;2023-04-03T03:17:14;0.70;99.90
15231;DHT22;32569;51.762;8.564;2023-04-03T03:19:41;0.70;99.90
15231;DHT22;32569;51.762;8.564;2023-04-03T03:22:07;0.70;99.90
15231;DHT22;32569;51.762;8.564;2023-04-03T03:24:34;0.70;99.90
15231;DHT22;32569;51.762;8.564;2023-04-03T03:27:01;0.60;99.90
15231;DHT22;32569;51.762;8.564;2023-04-03T03:29:27;0.60;99.90
15231;DHT22;32569;51.762;8.564;2023-04-03T03:31:56;0.50;99.90
15231;DHT22;32569;51.762;8.564;2023-04-03T03:34:24;0.50;99.90
15231;DHT22;32569;51.762;8.564;2023-04-03T03:36:51;0.50;99.90
15231;DHT22;32569;51.762;8.564;2023-04-03T03:39:21;0.50;99.90
15231;DHT22;32569;51.762;8.564;2023-04-03T03:41:47;0.50;99.90
15231;DHT22;32569;51.762;8.564;2023-04-03T03:44:15;0.40;99.90
15231;DHT22;32569;51.762;8.564;2023-04-03T03:46:41;0.50;99.90
15231;DHT22;32569;51.762;8.564;2023-04-03T03:49:11;0.40;99.90
15231;DHT22;32569;51.762;8.564;2023-04-03T03:51:39;0.40;99.90
15231;DHT22;32569;51.762;8.564;2023-04-03T03:54:09;0.40;99.90
15231;DHT22;32569;51.762;8.564;2023-04-03T03:56:36;0.40;99.90
15231;DHT22;32569;51.762;8.564;2023-04-03T03:59:03;0.30;99.90
15231;DHT22;32569;51.762;8.564;2023-04-03T04:01:29;0.20;99.90
15231;DHT22;32569;51.762;8.564;2023-04-03T04:03:56;0.20;99.90
15231;DHT22;32569;51.762;8.564;2023-04-03T04:06:23;0.20;99.90
15231;DHT22;32569;51.762;8.564;2023-04-03T04:08:51;0.10;99.90
15231;DHT22;32569;51.762;8.564;2023-04-03T04:11:17;0.10;99.90
15231;DHT22;32569;51.762;8.564;2023-04-03T04:13:47;0.10;99.90
15231;DHT22;32569;51.762;8.564;2023-04-03T04:16:19;0.10;99.90
15231;DHT22;32569;51.762;8.564;2023-04-03T04:18:46;0.10;99.90
15231;DHT22;32569;51.762;8.564;2023-04-03T04:21:15;0.10;99.90
15231;DHT22;32569;51.762;8.564;2023-04-03T04:23:42;0.10;99.90
15231;DHT22;32569;51.762;8.564;2023-04-03T04:26:10;0.00;99.90
15231;DHT22;32569;51.762;8.564;2023-04-03T04:28:37;0.00;99.90
15231;DHT22;32569;51.762;8.564;2023-04-03T04:31:03;0.00;99.90
15231;DHT22;32569;51.762;8.564;2023-04-03T04:33:33;-0.10;99.90
15231;DHT22;32569;51.762;8.564;2023-04-03T04:36:00;-0.10;99.90
15231;DHT22;32569;51.762;8.564;2023-04-03T04:38:26;-0.10;99.90
15231;DHT22;32569;51.762;8.564;2023-04-03T04:40:53;-0.10;99.90
15231;DHT22;32569;51.762;8.564;2023-04-03T04:43:21;-0.10;99.90
15231;DHT22;32569;51.762;8.564;2023-04-03T04:46:00;-0.10;99.90
15231;DHT22;32569;51.762;8.564;2023-04-03T04:48:27;-0.20;99.90
15231;DHT22;32569;51.762;8.564;2023-04-03T04:50:53;-0.20;99.90
15231;DHT22;32569;51.762;8.564;2023-04-03T04:53:20;-0.20;99.90
15231;DHT22;32569;51.762;8.564;2023-04-03T04:55:47;-0.10;99.90
15231;DHT22;32569;51.762;8.564;2023-04-03T04:58:14;-0.20;99.90
15231;DHT22;32569;51.762;8.564;2023-04-03T05:00:42;-0.20;99.90
15231;DHT22;32569;51.762;8.564;2023-04-03T05:03:09;-0.20;99.90
15231;DHT22;32569;51.762;8.564;2023-04-03T05:05:35;-0.20;99.90
15231;DHT22;32569;51.762;8.564;2023-04-03T05:08:02;-0.20;99.90
15231;DHT22;32569;51.762;8.564;2023-04-03T05:10:29;-0.30;99.90
15231;DHT22;32569;51.762;8.564;2023-04-03T05:12:56;-0.30;99.90
15231;DHT22;32569;51.762;8.564;2023-04-03T05:15:23;-0.30;99.90
15231;DHT22;32569;51.762;8.564;2023-04-03T05:17:51;-0.30;99.90
15231;DHT22;32569;51.762;8.564;2023-04-03T05:20:18;-0.20;99.90
15231;DHT22;32569;51.762;8.564;2023-04-03T05:22:44;-0.20;99.90
15231;DHT22;32569;51.762;8.564;2023-04-03T05:25:11;-0.10;99.90
15231;DHT22;32569;51.762;8.564;2023-04-03T05:27:38;-0.20;99.90
15231;DHT22;32569;51.762;8.564;2023-04-03T05:30:05;0.00;99.90
15231;DHT22;32569;51.762;8.564;2023-04-03T05:32:32;0.40;99.90
15231;DHT22;32569;51.762;8.564;2023-04-03T05:35:00;0.70;99.90
15231;DHT22;32569;51.762;8.564;2023-04-03T05:37:27;0.80;99.90
15231;DHT22;32569;51.762;8.564;2023-04-03T05:39:54;0.80;99.90
15231;DHT22;32569;51.762;8.564;2023-04-03T05:42:20;0.70;99.90
15231;DHT22;32569;51.762;8.564;2023-04-03T05:44:47;0.50;99.90
15231;DHT22;32569;51.762;8.564;2023-04-03T05:47:15;0.50;99.90
15231;DHT22;32569;51.762;8.564;2023-04-03T05:49:42;0.90;99.90
15231;DHT22;32569;51.762;8.564;2023-04-03T05:52:19;1.10;99.90
15231;DHT22;32569;51.762;8.564;2023-04-03T05:54:47;1.20;99.90
15231;DHT22;32569;51.762;8.564;2023-04-03T05:57:13;1.50;99.90
15231;DHT22;32569;51.762;8.564;2023-04-03T05:59:41;1.70;99.90
15231;DHT22;32569;51.762;8.564;2023-04-03T06:02:09;1.90;99.90
15231;DHT22;32569;51.762;8.564;2023-04-03T06:04:36;2.00;99.90
15231;DHT22;32569;51.762;8.564;2023-04-03T06:07:03;1.90;99.90
15231;DHT22;32569;51.762;8.564;2023-04-03T06:09:32;1.50;99.90
15231;DHT22;32569;51.762;8.564;2023-04-03T06:11:58;1.30;99.90
15231;DHT22;32569;51.762;8.564;2023-04-03T06:14:26;1.10;99.90
15231;DHT22;32569;51.762;8.564;2023-04-03T06:16:53;1.00;99.90
15231;DHT22;32569;51.762;8.564;2023-04-03T06:19:20;1.00;99.90
15231;DHT22;32569;51.762;8.564;2023-04-03T06:21:47;1.00;99.90
15231;DHT22;32569;51.762;8.564;2023-04-03T06:24:16;1.10;99.90
15231;DHT22;32569;51.762;8.564;2023-04-03T06:26:44;1.20;99.90
15231;DHT22;32569;51.762;8.564;2023-04-03T06:29:11;1.20;99.90
15231;DHT22;32569;51.762;8.564;2023-04-03T06:31:38;1.30;99.90
15231;DHT22;32569;51.762;8.564;2023-04-03T06:34:05;1.20;99.90
15231;DHT22;32569;51.762;8.564;2023-04-03T06:36:32;1.10;99.90
15231;DHT22;32569;51.762;8.564;2023-04-03T06:38:59;1.10;99.90
15231;DHT22;32569;51.762;8.564;2023-04-03T06:41:26;1.10;99.90
15231;DHT22;32569;51.762;8.564;2023-04-03T06:43:55;1.10;99.90
15231;DHT22;32569;51.762;8.564;2023-04-03T06:46:24;1.10;99.90
15231;DHT22;32569;51.762;8.564;2023-04-03T06:48:52;1.20;99.90
15231;DHT22;32569;51.762;8.564;2023-04-03T06:51:20;1.10;99.90
15231;DHT22;32569;51.762;8.564;2023-04-03T06:53:48;1.20;99.90
15231;DHT22;32569;51.762;8.564;2023-04-03T06:56:15;1.20;99.90
15231;DHT22;32569;51.762;8.564;2023-04-03T06:58:42;1.30;99.90
15231;DHT22;32569;51.762;8.564;2023-04-03T07:01:11;1.30;99.90
15231;DHT22;32569;51.762;8.564;2023-04-03T07:03:38;1.30;99.90
15231;DHT22;32569;51.762;8.564;2023-04-03T07:06:06;1.20;99.90
15231;DHT22;32569;51.762;8.564;2023-04-03T07:08:34;1.20;99.90
15231;DHT22;32569;51.762;8.564;2023-04-03T07:11:01;1.30;99.90
15231;DHT22;32569;51.762;8.564;2023-04-03T07:13:28;1.40;99.90
15231;DHT22;32569;51.762;8.564;2023-04-03T07:15:55;1.40;99.90
15231;DHT22;32569;51.762;8.564;2023-04-03T07:18:24;1.60;99.90
15231;DHT22;32569;51.762;8.564;2023-04-03T07:20:51;1.60;99.90
15231;DHT22;32569;51.762;8.564;2023-04-03T07:23:18;1.60;99.90
15231;DHT22;32569;51.762;8.564;2023-04-03T07:25:46;1.70;99.90
15231;DHT22;32569;51.762;8.564;2023-04-03T07:28:13;1.70;99.90
15231;DHT22;32569;51.762;8.564;2023-04-03T07:30:44;1.80;99.90
15231;DHT22;32569;51.762;8.564;2023-04-03T07:33:12;1.90;99.60
15231;DHT22;32569;51.762;8.564;2023-04-03T07:35:41;2.00;99.80
15231;DHT22;32569;51.762;8.564;2023-04-03T07:38:09;2.00;99.30
15231;DHT22;32569;51.762;8.564;2023-04-03T07:40:37;2.10;98.70
15231;DHT22;32569;51.762;8.564;2023-04-03T07:43:05;2.10;99.50
15231;DHT22;32569;51.762;8.564;2023-04-03T07:45:34;2.20;98.70
15231;DHT22;32569;51.762;8.564;2023-04-03T07:48:03;2.30;98.40
15231;DHT22;32569;51.762;8.564;2023-04-03T07:50:30;2.40;99.20
15231;DHT22;32569;51.762;8.564;2023-04-03T07:52:59;2.50;98.80
15231;DHT22;32569;51.762;8.564;2023-04-03T07:55:26;2.60;98.40
15231;DHT22;32569;51.762;8.564;2023-04-03T07:57:53;2.70;98.20
15231;DHT22;32569;51.762;8.564;2023-04-03T08:00:21;2.80;97.70
15231;DHT22;32569;51.762;8.564;2023-04-03T08:02:48;2.80;98.10
15231;DHT22;32569;51.762;8.564;2023-04-03T08:05:17;2.90;97.60
15231;DHT22;32569;51.762;8.564;2023-04-03T08:07:44;3.00;96.30
15231;DHT22;32569;51.762;8.564;2023-04-03T08:10:13;3.00;96.60
15231;DHT22;32569;51.762;8.564;2023-04-03T08:12:41;3.00;95.70
15231;DHT22;32569;51.762;8.564;2023-04-03T08:15:08;3.00;94.70
15231;DHT22;32569;51.762;8.564;2023-04-03T08:17:36;3.00;95.40
15231;DHT22;32569;51.762;8.564;2023-04-03T08:20:04;3.10;95.00
15231;DHT22;32569;51.762;8.564;2023-04-03T08:22:32;3.20;94.80
15231;DHT22;32569;51.762;8.564;2023-04-03T08:24:58;3.20;94.30
15231;DHT22;32569;51.762;8.564;2023-04-03T08:27:28;3.30;94.60
15231;DHT22;32569;51.762;8.564;2023-04-03T08:29:54;3.30;94.50
15231;DHT22;32569;51.762;8.564;2023-04-03T08:32:22;3.50;94.90
15231;DHT22;32569;51.762;8.564;2023-04-03T08:34:49;3.60;93.70
15231;DHT22;32569;51.762;8.564;2023-04-03T08:37:16;3.60;94.10
15231;DHT22;32569;51.762;8.564;2023-04-03T08:39:43;3.70;94.00
15231;DHT22;32569;51.762;8.564;2023-04-03T08:42:15;3.80;93.30
15231;DHT22;32569;51.762;8.564;2023-04-03T08:44:47;3.80;92.50
15231;DHT22;32569;51.762;8.564;2023-04-03T08:47:23;3.90;93.30
15231;DHT22;32569;51.762;8.564;2023-04-03T08:49:54;3.90;93.20
15231;DHT22;32569;51.762;8.564;2023-04-03T08:52:31;3.90;93.00
15231;DHT22;32569;51.762;8.564;2023-04-03T08:55:00;4.00;93.30
15231;DHT22;32569;51.762;8.564;2023-04-03T08:57:30;4.00;93.00
15231;DHT22;32569;51.762;8.564;2023-04-03T09:00:05;4.10;93.60
15231;DHT22;32569;51.762;8.564;2023-04-03T09:02:35;4.10;92.80
15231;DHT22;32569;51.762;8.564;2023-04-03T09:05:11;4.10;92.50
15231;DHT22;32569;51.762;8.564;2023-04-03T09:07:42;4.10;91.70
15231;DHT22;32569;51.762;8.564;2023-04-03T09:10:11;4.00;91.90
15231;DHT22;32569;51.762;8.564;2023-04-03T09:12:41;4.00;92.20
15231;DHT22;32569;51.762;8.564;2023-04-03T09:15:16;4.10;92.80
15231;DHT22;32569;51.762;8.564;2023-04-03T09:17:56;4.30;92.20
15231;DHT22;32569;51.762;8.564;2023-04-03T09:20:33;4.40;91.30
15231;DHT22;32569;51.762;8.564;2023-04-03T09:23:14;4.50;90.80
15231;DHT22;32569;51.762;8.564;2023-04-03T09:25:43;4.50;91.00
15231;DHT22;32569;51.762;8.564;2023-04-03T09:28:10;4.60;91.70
15231;DHT22;32569;51.762;8.564;2023-04-03T09:30:38;4.70;92.20
15231;DHT22;32569;51.762;8.564;2023-04-03T09:33:05;4.70;92.00
15231;DHT22;32569;51.762;8.564;2023-04-03T09:35:34;4.90;91.70
15231;DHT22;32569;51.762;8.564;2023-04-03T09:38:15;5.00;91.70
15231;DHT22;32569;51.762;8.564;2023-04-03T09:40:44;4.90;90.90
15231;DHT22;32569;51.762;8.564;2023-04-03T09:43:26;4.90;90.90
15231;DHT22;32569;51.762;8.564;2023-04-03T09:45:55;4.90;90.60
15231;DHT22;32569;51.762;8.564;2023-04-03T09:48:24;4.90;91.00
15231;DHT22;32569;51.762;8.564;2023-04-03T09:50:58;5.10;91.60
15231;DHT22;32569;51.762;8.564;2023-04-03T09:53:35;5.00;90.50
15231;DHT22;32569;51.762;8.564;2023-04-03T09:56:04;5.10;90.20
15231;DHT22;32569;51.762;8.564;2023-04-03T09:58:35;5.10;90.40
15231;DHT22;32569;51.762;8.564;2023-04-03T10:01:05;5.00;88.20
15231;DHT22;32569;51.762;8.564;2023-04-03T10:03:34;5.10;90.50
15231;DHT22;32569;51.762;8.564;2023-04-03T10:06:03;5.10;90.70
15231;DHT22;32569;51.762;8.564;2023-04-03T10:08:31;5.20;90.20
15231;DHT22;32569;51.762;8.564;2023-04-03T10:11:13;5.20;90.00
15231;DHT22;32569;51.762;8.564;2023-04-03T10:13:54;5.20;90.50
15231;DHT22;32569;51.762;8.564;2023-04-03T10:16:27;5.50;90.50
15231;DHT22;32569;51.762;8.564;2023-04-03T10:19:13;5.60;89.40
15231;DHT22;32569;51.762;8.564;2023-04-03T10:21:48;5.50;87.30
15231;DHT22;32569;51.762;8.564;2023-04-03T10:24:23;5.50;88.10
15231;DHT22;32569;51.762;8.564;2023-04-03T10:26:57;5.50;89.90
15231;DHT22;32569;51.762;8.564;2023-04-03T10:29:35;5.60;89.80
15231;DHT22;32569;51.762;8.564;2023-04-03T10:32:14;5.60;90.30
15231;DHT22;32569;51.762;8.564;2023-04-03T10:34:45;5.70;89.60
15231;DHT22;32569;51.762;8.564;2023-04-03T10:37:18;5.50;90.70
15231;DHT22;32569;51.762;8.564;2023-04-03T10:39:52;5.60;90.70
15231;DHT22;32569;51.762;8.564;2023-04-03T10:42:26;5.70;90.50
15231;DHT22;32569;51.762;8.564;2023-04-03T10:45:08;5.50;89.30
15231;DHT22;32569;51.762;8.564;2023-04-03T10:47:51;5.40;89.60
15231;DHT22;32569;51.762;8.564;2023-04-03T10:50:29;5.30;90.00
15231;DHT22;32569;51.762;8.564;2023-04-03T10:53:04;5.20;90.20
15231;DHT22;32569;51.762;8.564;2023-04-03T10:55:36;5.20;89.60
15231;DHT22;32569;51.762;8.564;2023-04-03T10:58:06;5.30;90.60
15231;DHT22;32569;51.762;8.564;2023-04-03T11:00:39;5.40;90.80
15231;DHT22;32569;51.762;8.564;2023-04-03T11:03:11;5.60;91.40
15231;DHT22;32569;51.762;8.564;2023-04-03T11:05:42;5.90;90.50
15231;DHT22;32569;51.762;8.564;2023-04-03T11:08:14;6.10;91.70
15231;DHT22;32569;51.762;8.564;2023-04-03T11:10:45;6.20;89.70
15231;DHT22;32569;51.762;8.564;2023-04-03T11:13:17;6.30;90.30
15231;DHT22;32569;51.762;8.564;2023-04-03T11:15:46;6.20;90.10
15231;DHT22;32569;51.762;8.564;2023-04-03T11:18:17;6.20;90.70
15231;DHT22;32569;51.762;8.564;2023-04-03T11:20:50;6.30;91.30
15231;DHT22;32569;51.762;8.564;2023-04-03T11:23:21;6.40;90.70
15231;DHT22;32569;51.762;8.564;2023-04-03T11:25:53;6.10;87.50
15231;DHT22;32569;51.762;8.564;2023-04-03T11:28:20;5.80;88.90
15231;DHT22;32569;51.762;8.564;2023-04-03T11:30:51;5.80;89.40
15231;DHT22;32569;51.762;8.564;2023-04-03T11:33:36;5.90;90.20
15231;DHT22;32569;51.762;8.564;2023-04-03T11:36:07;5.90;90.00
15231;DHT22;32569;51.762;8.564;2023-04-03T11:38:37;5.90;90.00
15231;DHT22;32569;51.762;8.564;2023-04-03T11:41:07;6.00;90.00
15231;DHT22;32569;51.762;8.564;2023-04-03T11:43:40;6.20;90.60
15231;DHT22;32569;51.762;8.564;2023-04-03T11:46:07;6.20;90.90
15231;DHT22;32569;51.762;8.564;2023-04-03T11:48:52;6.20;90.10
15231;DHT22;32569;51.762;8.564;2023-04-03T11:51:52;6.10;90.40
15231;DHT22;32569;51.762;8.564;2023-04-03T11:54:47;6.00;90.50
15231;DHT22;32569;51.762;8.564;2023-04-03T11:57:43;6.10;90.90
15231;DHT22;32569;51.762;8.564;2023-04-03T12:03:30;5.80;90.20
15231;DHT22;32569;51.762;8.564;2023-04-03T12:09:23;6.00;89.70
15231;DHT22;32569;51.762;8.564;2023-04-03T12:11:50;6.30;90.40
15231;DHT22;32569;51.762;8.564;2023-04-03T12:14:17;6.40;89.40
15231;DHT22;32569;51.762;8.564;2023-04-03T12:16:46;6.70;87.20
15231;DHT22;32569;51.762;8.564;2023-04-03T12:19:34;6.90;85.40
15231;DHT22;32569;51.762;8.564;2023-04-03T12:22:08;6.70;87.40
15231;DHT22;32569;51.762;8.564;2023-04-03T12:24:36;6.70;87.90
15231;DHT22;32569;51.762;8.564;2023-04-03T12:27:24;6.70;89.30
15231;DHT22;32569;51.762;8.564;2023-04-03T12:29:59;6.80;87.40
15231;DHT22;32569;51.762;8.564;2023-04-03T12:32:47;6.90;87.80
15231;DHT22;32569;51.762;8.564;2023-04-03T12:35:21;7.00;85.50
15231;DHT22;32569;51.762;8.564;2023-04-03T12:41:23;6.90;88.60
15231;DHT22;32569;51.762;8.564;2023-04-03T12:44:01;6.80;89.10
15231;DHT22;32569;51.762;8.564;2023-04-03T12:46:36;6.90;86.50
15231;DHT22;32569;51.762;8.564;2023-04-03T12:49:14;6.60;85.80
15231;DHT22;32569;51.762;8.564;2023-04-03T12:51:47;6.40;86.80
15231;DHT22;32569;51.762;8.564;2023-04-03T12:54:16;6.50;88.90
15231;DHT22;32569;51.762;8.564;2023-04-03T12:56:46;6.60;87.80
15231;DHT22;32569;51.762;8.564;2023-04-03T12:59:15;6.50;86.70
15231;DHT22;32569;51.762;8.564;2023-04-03T13:01:43;6.40;88.40
15231;DHT22;32569;51.762;8.564;2023-04-03T13:04:11;6.40;89.70
15231;DHT22;32569;51.762;8.564;2023-04-03T13:06:40;6.30;87.90
15231;DHT22;32569;51.762;8.564;2023-04-03T13:09:23;6.00;88.80
15231;DHT22;32569;51.762;8.564;2023-04-03T13:11:57;6.00;87.70
15231;DHT22;32569;51.762;8.564;2023-04-03T13:14:26;6.00;88.40
15231;DHT22;32569;51.762;8.564;2023-04-03T13:16:55;5.90;88.60
15231;DHT22;32569;51.762;8.564;2023-04-03T13:19:23;5.90;89.70
15231;DHT22;32569;51.762;8.564;2023-04-03T13:21:57;6.00;89.20
15231;DHT22;32569;51.762;8.564;2023-04-03T13:24:26;6.00;89.90
15231;DHT22;32569;51.762;8.564;2023-04-03T13:26:56;6.00;90.30
15231;DHT22;32569;51.762;8.564;2023-04-03T13:29:26;6.00;89.10
15231;DHT22;32569;51.762;8.564;2023-04-03T13:31:55;6.20;88.80
15231;DHT22;32569;51.762;8.564;2023-04-03T13:34:24;6.30;87.30
15231;DHT22;32569;51.762;8.564;2023-04-03T13:36:58;6.40;88.40
15231;DHT22;32569;51.762;8.564;2023-04-03T13:39:28;6.30;88.50
15231;DHT22;32569;51.762;8.564;2023-04-03T13:41:57;6.30;88.20
15231;DHT22;32569;51.762;8.564;2023-04-03T13:44:31;6.40;88.90
15231;DHT22;32569;51.762;8.564;2023-04-03T13:47:00;6.40;89.00
15231;DHT22;32569;51.762;8.564;2023-04-03T13:49:33;6.50;89.30
15231;DHT22;32569;51.762;8.564;2023-04-03T13:52:02;6.60;86.80
15231;DHT22;32569;51.762;8.564;2023-04-03T13:54:32;6.60;87.40
15231;DHT22;32569;51.762;8.564;2023-04-03T13:57:01;6.70;87.40
15231;DHT22;32569;51.762;8.564;2023-04-03T13:59:29;6.70;87.10
15231;DHT22;32569;51.762;8.564;2023-04-03T14:02:14;6.70;85.70
15231;DHT22;32569;51.762;8.564;2023-04-03T14:04:50;6.90;86.70
15231;DHT22;32569;51.762;8.564;2023-04-03T14:07:19;7.20;87.50
15231;DHT22;32569;51.762;8.564;2023-04-03T14:09:47;7.40;86.60
15231;DHT22;32569;51.762;8.564;2023-04-03T14:12:18;7.20;86.10
15231;DHT22;32569;51.762;8.564;2023-04-03T14:14:45;7.30;86.20
15231;DHT22;32569;51.762;8.564;2023-04-03T14:17:15;7.40;86.90
15231;DHT22;32569;51.762;8.564;2023-04-03T14:19:42;7.30;85.50
15231;DHT22;32569;51.762;8.564;2023-04-03T14:22:15;6.90;87.10
15231;DHT22;32569;51.762;8.564;2023-04-03T14:24:42;6.70;85.80
15231;DHT22;32569;51.762;8.564;2023-04-03T14:27:18;6.60;86.80
15231;DHT22;32569;51.762;8.564;2023-04-03T14:29:45;6.70;86.70
15231;DHT22;32569;51.762;8.564;2023-04-03T14:32:13;6.90;87.30
15231;DHT22;32569;51.762;8.564;2023-04-03T14:34:40;7.00;87.80
15231;DHT22;32569;51.762;8.564;2023-04-03T14:37:10;7.00;87.00
15231;DHT22;32569;51.762;8.564;2023-04-03T14:39:37;7.00;87.90
15231;DHT22;32569;51.762;8.564;2023-04-03T14:42:04;7.00;86.60
15231;DHT22;32569;51.762;8.564;2023-04-03T14:44:33;6.80;86.20
15231;DHT22;32569;51.762;8.564;2023-04-03T14:47:00;6.80;87.80
15231;DHT22;32569;51.762;8.564;2023-04-03T14:49:28;6.70;87.10
15231;DHT22;32569;51.762;8.564;2023-04-03T14:51:56;6.70;88.70
15231;DHT22;32569;51.762;8.564;2023-04-03T14:54:24;6.80;87.50
15231;DHT22;32569;51.762;8.564;2023-04-03T14:56:53;6.90;89.00
15231;DHT22;32569;51.762;8.564;2023-04-03T14:59:21;7.10;86.50
15231;DHT22;32569;51.762;8.564;2023-04-03T15:01:49;7.00;85.90
15231;DHT22;32569;51.762;8.564;2023-04-03T15:04:17;7.10;87.70
15231;DHT22;32569;51.762;8.564;2023-04-03T15:06:45;6.90;84.20
15231;DHT22;32569;51.762;8.564;2023-04-03T15:09:19;6.80;85.50
15231;DHT22;32569;51.762;8.564;2023-04-03T15:11:46;6.80;86.20
15231;DHT22;32569;51.762;8.564;2023-04-03T15:14:13;6.80;86.30
15231;DHT22;32569;51.762;8.564;2023-04-03T15:16:40;6.80;86.80
15231;DHT22;32569;51.762;8.564;2023-04-03T15:19:08;6.80;85.70
15231;DHT22;32569;51.762;8.564;2023-04-03T15:21:35;6.90;86.60
15231;DHT22;32569;51.762;8.564;2023-04-03T15:24:01;7.10;87.40
15231;DHT22;32569;51.762;8.564;2023-04-03T15:26:29;7.10;87.10
15231;DHT22;32569;51.762;8.564;2023-04-03T15:28:56;7.10;86.40
15231;DHT22;32569;51.762;8.564;2023-04-03T15:31:22;7.00;87.70
15231;DHT22;32569;51.762;8.564;2023-04-03T15:33:49;6.80;86.30
15231;DHT22;32569;51.762;8.564;2023-04-03T15:36:17;6.90;87.80
15231;DHT22;32569;51.762;8.564;2023-04-03T15:38:44;7.00;86.70
15231;DHT22;32569;51.762;8.564;2023-04-03T15:41:10;7.00;85.20
15231;DHT22;32569;51.762;8.564;2023-04-03T15:43:37;7.00;86.40
15231;DHT22;32569;51.762;8.564;2023-04-03T15:46:04;7.00;87.70
15231;DHT22;32569;51.762;8.564;2023-04-03T15:48:30;7.00;85.40
15231;DHT22;32569;51.762;8.564;2023-04-03T15:50:57;7.00;86.20
15231;DHT22;32569;51.762;8.564;2023-04-03T15:53:25;6.90;86.00
15231;DHT22;32569;51.762;8.564;2023-04-03T15:55:52;6.80;86.40
15231;DHT22;32569;51.762;8.564;2023-04-03T15:58:18;6.70;87.30
15231;DHT22;32569;51.762;8.564;2023-04-03T16:00:45;6.70;86.60
15231;DHT22;32569;51.762;8.564;2023-04-03T16:03:15;6.80;85.50
15231;DHT22;32569;51.762;8.564;2023-04-03T16:05:43;6.70;85.60
15231;DHT22;32569;51.762;8.564;2023-04-03T16:08:10;6.70;86.30
15231;DHT22;32569;51.762;8.564;2023-04-03T16:10:38;6.70;86.00
15231;DHT22;32569;51.762;8.564;2023-04-03T16:13:05;6.70;86.50